Time;durP1;ratioP1;P1;durP2;ratioP2;P2;SDS_P1;SDS_P2;PMS_P1;PMS_P2;Temp;Humidity;BMP_temperature;BMP_pressure;BME280_temperature;BME280_humidity;BME280_pressure;Samples;Min_cycle;Max_cycle;Signal;HPM_P1;HPM_P2
2023/09/07 00:00:15;;;;;;;5.55;3.40;;;18.80;99.90;;;;;;6262573;22;20015;-92
2023/09/07 00:02:40;;;;;;;3.83;3.30;;;18.80;99.90;;;;;;6232750;22;20022;-92
2023/09/07 00:05:07;;;;;;;5.07;3.05;;;18.80;99.90;;;;;;6239447;22;20019;-92
2023/09/07 00:07:33;;;;;;;4.03;3.20;;;18.70;99.90;;;;;;6239576;22;20007;-92
2023/09/07 00:09:59;;;;;;;3.15;2.85;;;18.70;99.90;;;;;;6236746;22;20034;-93
2023/09/07 00:12:25;;;;;;;3.25;2.95;;;18.70;99.90;;;;;;6251784;22;20090;-93
2023/09/07 00:14:53;;;;;;;5.57;3.28;;;18.60;99.90;;;;;;6249471;22;20023;-92
2023/09/07 00:17:20;;;;;;;3.67;3.13;;;18.60;99.90;;;;;;6250314;22;20012;-93
2023/09/07 00:19:48;;;;;;;4.38;3.60;;;18.60;99.90;;;;;;6250655;22;20016;-93
2023/09/07 00:22:14;;;;;;;4.97;3.17;;;18.60;99.90;;;;;;6250586;22;20019;-93
2023/09/07 00:24:40;;;;;;;3.95;3.65;;;18.60;99.90;;;;;;6248183;22;20020;-93
2023/09/07 00:27:07;;;;;;;3.33;3.03;;;18.60;99.90;;;;;;6225720;22;20016;-92
2023/09/07 00:29:35;;;;;;;4.55;3.15;;;18.60;99.90;;;;;;6225577;22;20119;-93
2023/09/07 00:32:01;;;;;;;5.10;3.55;;;18.70;99.90;;;;;;6248687;22;20043;-93
2023/09/07 00:34:26;;;;;;;3.35;2.95;;;18.70;99.90;;;;;;6223518;22;20015;-92
2023/09/07 00:36:52;;;;;;;5.47;3.35;;;18.70;99.90;;;;;;6248891;22;20455;-93
2023/09/07 00:39:18;;;;;;;3.42;3.13;;;18.70;99.90;;;;;;6222677;22;20095;-93
2023/09/07 00:41:43;;;;;;;3.25;2.90;;;18.70;99.90;;;;;;6248847;22;20016;-93
2023/09/07 00:44:09;;;;;;;5.88;3.28;;;18.70;99.90;;;;;;6223035;22;20014;-92
2023/09/07 00:46:35;;;;;;;3.17;2.97;;;18.70;99.90;;;;;;6223143;22;20012;-93
2023/09/07 00:49:01;;;;;;;4.78;3.03;;;18.70;99.90;;;;;;6223718;22;20008;-92
2023/09/07 00:51:26;;;;;;;5.22;3.15;;;18.70;99.90;;;;;;6230174;22;20011;-92
2023/09/07 00:53:53;;;;;;;5.45;3.20;;;18.80;99.90;;;;;;6234691;22;20474;-94
2023/09/07 00:56:19;;;;;;;3.67;3.20;;;18.80;99.90;;;;;;6235641;22;20464;-91
2023/09/07 00:58:45;;;;;;;3.30;2.80;;;18.70;99.90;;;;;;6229381;22;20003;-93
2023/09/07 01:01:10;;;;;;;4.30;3.00;;;18.70;99.90;;;;;;6224849;22;20012;-93
2023/09/07 01:03:36;;;;;;;3.97;3.05;;;18.70;99.90;;;;;;6276899;22;20317;-93
2023/09/07 01:06:12;;;;;;;6.03;3.30;;;18.70;99.90;;;;;;6250031;22;20015;-93
2023/09/07 01:08:51;;;;;;;3.78;3.03;;;18.80;99.90;;;;;;6222928;22;20015;-93
2023/09/07 01:11:20;;;;;;;3.90;3.10;;;18.80;99.90;;;;;;6224707;22;20349;-93
2023/09/07 01:13:46;;;;;;;3.20;2.90;;;18.80;99.90;;;;;;6225368;22;20022;-92
2023/09/07 01:16:13;;;;;;;3.85;3.13;;;18.80;99.90;;;;;;6251073;22;20042;-93
2023/09/07 01:18:39;;;;;;;5.53;2.90;;;18.90;99.90;;;;;;6252113;22;20011;-92
2023/09/07 01:21:09;;;;;;;5.20;3.40;;;18.90;99.90;;;;;;6249148;22;20019;-93
2023/09/07 01:23:40;;;;;;;6.57;3.63;;;19.00;99.90;;;;;;6222891;22;20011;-93
2023/09/07 01:26:08;;;;;;;3.58;3.10;;;18.90;99.90;;;;;;6223383;22;20033;-93
2023/09/07 01:28:34;;;;;;;6.50;3.40;;;18.90;99.90;;;;;;6248792;22;20040;-93
2023/09/07 01:31:01;;;;;;;5.88;3.40;;;19.00;99.90;;;;;;6223334;22;20016;-93
2023/09/07 01:33:27;;;;;;;3.90;3.20;;;19.00;99.90;;;;;;6223496;22;20012;-93
2023/09/07 01:35:53;;;;;;;9.07;3.50;;;18.90;99.90;;;;;;6249064;22;20552;-93
2023/09/07 01:38:18;;;;;;;3.90;3.28;;;19.00;99.90;;;;;;6222263;22;20016;-93
2023/09/07 01:40:44;;;;;;;5.25;3.60;;;18.90;99.90;;;;;;6223152;22;20086;-93
2023/09/07 01:43:10;;;;;;;6.07;3.40;;;18.90;99.90;;;;;;6248970;22;20328;-93
2023/09/07 01:45:35;;;;;;;6.10;3.30;;;18.80;99.90;;;;;;6229129;22;20020;-93
2023/09/07 01:48:03;;;;;;;3.85;3.30;;;18.80;99.90;;;;;;6258357;22;20008;-93
2023/09/07 01:50:28;;;;;;;;;;;18.80;99.90;;;;;;6235533;22;20012;-93
2023/09/07 01:52:54;;;;;;;6.22;3.15;;;18.80;99.90;;;;;;6252887;22;19951;-93
2023/09/07 01:55:20;;;;;;;6.32;3.42;;;18.70;99.90;;;;;;6223049;22;20015;-93
2023/09/07 01:57:46;;;;;;;5.68;3.58;;;18.60;99.90;;;;;;6223185;22;20019;-93
2023/09/07 02:00:12;;;;;;;4.32;3.47;;;18.60;99.90;;;;;;6248838;22;20019;-92
2023/09/07 02:02:38;;;;;;;6.63;3.37;;;18.50;99.90;;;;;;6222899;22;20334;-93
2023/09/07 02:05:04;;;;;;;5.57;3.90;;;18.50;99.90;;;;;;6223251;22;20020;-93
2023/09/07 02:07:30;;;;;;;5.25;3.63;;;18.40;99.90;;;;;;6222958;22;20117;-93
2023/09/07 02:09:55;;;;;;;5.97;4.15;;;18.30;99.90;;;;;;6248436;22;20023;-92
2023/09/07 02:12:21;;;;;;;6.05;3.95;;;18.20;99.90;;;;;;6223031;22;20034;-93
2023/09/07 02:14:47;;;;;;;4.28;3.88;;;18.20;99.90;;;;;;6222690;22;20008;-93
2023/09/07 02:17:17;;;;;;;4.07;3.40;;;18.10;99.90;;;;;;6223108;22;20008;-93
2023/09/07 02:19:43;;;;;;;4.57;4.15;;;18.00;99.90;;;;;;6249371;22;20053;-93
2023/09/07 02:22:09;;;;;;;5.90;4.20;;;18.00;99.90;;;;;;6248564;22;20012;-92
2023/09/07 02:24:35;;;;;;;6.35;4.20;;;17.90;99.90;;;;;;6223227;22;20022;-93
2023/09/07 02:27:01;;;;;;;7.53;4.63;;;17.90;99.90;;;;;;6249140;22;20027;-93
2023/09/07 02:29:26;;;;;;;4.85;4.28;;;17.90;99.90;;;;;;6249109;22;20015;-94
2023/09/07 02:31:52;;;;;;;4.55;4.15;;;17.80;99.90;;;;;;6224232;22;20425;-94
2023/09/07 02:34:18;;;;;;;5.35;4.40;;;17.80;99.90;;;;;;6225238;22;20359;-93
2023/09/07 02:36:44;;;;;;;5.93;4.32;;;17.70;99.90;;;;;;6251142;22;20073;-94
2023/09/07 02:39:11;;;;;;;4.93;4.32;;;17.60;99.90;;;;;;6226134;22;20012;-94
2023/09/07 02:41:38;;;;;;;6.93;4.75;;;17.80;99.90;;;;;;6254278;22;20122;-94
2023/09/07 02:44:04;;;;;;;7.77;4.43;;;18.00;99.90;;;;;;6225396;22;20012;-94
2023/09/07 02:46:30;;;;;;;6.47;4.40;;;;;;;;;;6228510;22;20019;-95
2023/09/07 02:48:59;;;;;;;5.18;4.47;;;;;;;;;;6225981;22;20064;-94
2023/09/07 02:51:25;;;;;;;5.65;4.57;;;;;;;;;;6251849;22;20012;-95
2023/09/07 02:53:52;;;;;;;4.72;4.22;;;;;;;;;;6251933;22;20087;-95
2023/09/07 02:56:18;;;;;;;7.43;4.25;;;;;;;;;;6225867;22;20094;-95
2023/09/07 02:58:45;;;;;;;5.07;4.68;;;17.30;99.90;;;;;;6225313;22;20041;-93
2023/09/07 03:01:11;;;;;;;6.73;4.73;;;17.30;99.90;;;;;;6223699;22;20065;-93
2023/09/07 03:03:37;;;;;;;5.22;4.65;;;17.20;99.90;;;;;;6223219;22;20043;-92
2023/09/07 03:06:13;;;;;;;6.78;5.00;;;17.20;99.90;;;;;;6249946;22;20015;-93
2023/09/07 03:08:44;;;;;;;7.07;5.32;;;17.20;99.90;;;;;;6224301;22;20057;-93
2023/09/07 03:11:11;;;;;;;5.45;4.35;;;17.10;99.90;;;;;;6239714;22;20023;-94
2023/09/07 03:13:37;;;;;;;5.80;4.63;;;17.10;99.90;;;;;;6266049;22;20031;-93
2023/09/07 03:16:04;;;;;;;6.65;4.35;;;17.10;99.90;;;;;;6224692;22;20025;-93
2023/09/07 03:18:30;;;;;;;7.40;4.90;;;17.10;99.90;;;;;;6225307;22;20432;-93
2023/09/07 03:20:59;;;;;;;6.25;4.80;;;17.10;99.90;;;;;;6278012;22;20494;-92
2023/09/07 03:23:25;;;;;;;6.13;4.70;;;17.00;99.90;;;;;;6249278;22;20095;-93
2023/09/07 03:25:51;;;;;;;5.53;4.65;;;17.00;99.90;;;;;;6224022;22;20076;-93
2023/09/07 03:28:16;;;;;;;6.25;5.10;;;17.00;99.90;;;;;;6224711;22;20035;-93
2023/09/07 03:30:42;;;;;;;5.55;5.03;;;17.00;99.90;;;;;;6224219;22;20012;-94
2023/09/07 03:33:08;;;;;;;6.53;4.78;;;17.00;99.90;;;;;;6223426;22;20333;-93
2023/09/07 03:35:34;;;;;;;7.32;4.88;;;17.00;99.90;;;;;;6250486;22;20015;-93
2023/09/07 03:37:59;;;;;;;5.75;5.13;;;17.00;99.90;;;;;;6224696;22;20047;-91
2023/09/07 03:40:25;;;;;;;7.22;5.43;;;17.00;99.90;;;;;;6227827;22;20396;-94
2023/09/07 03:42:51;;;;;;;6.43;5.45;;;17.00;99.90;;;;;;6249647;22;20340;-94
2023/09/07 03:45:17;;;;;;;7.05;5.63;;;16.90;99.90;;;;;;6223755;22;20046;-94
2023/09/07 03:47:44;;;;;;;6.00;5.30;;;16.90;99.90;;;;;;6265716;22;20016;-95
2023/09/07 03:50:10;;;;;;;5.83;5.20;;;16.90;99.90;;;;;;6237336;22;20007;-93
2023/09/07 03:52:35;;;;;;;5.82;5.32;;;16.90;99.90;;;;;;6227476;22;20007;-94
2023/09/07 03:55:01;;;;;;;5.45;4.68;;;16.90;99.90;;;;;;6233890;22;20022;-94
2023/09/07 03:57:27;;;;;;;5.97;5.30;;;16.80;99.90;;;;;;6271032;22;20038;-93
2023/09/07 03:59:55;;;;;;;6.38;5.78;;;16.80;99.90;;;;;;6244648;22;20042;-94
2023/09/07 04:02:21;;;;;;;;;;;16.80;99.90;;;;;;6226756;22;20012;-94
2023/09/07 04:04:51;;;;;;;6.07;5.40;;;;;;;;;;6232870;22;19915;-95
2023/09/07 04:07:17;;;;;;;6.15;5.55;;;;;;;;;;6250100;22;20055;-95
2023/09/07 04:09:44;;;;;;;6.30;5.07;;;;;;;;;;6249492;22;20043;-95
2023/09/07 04:12:10;;;;;;;6.88;5.13;;;;;;;;;;6224407;22;20015;-95
2023/09/07 04:14:36;;;;;;;5.80;5.30;;;;;;;;;;6224639;22;20103;-94
2023/09/07 04:17:03;;;;;;;6.03;5.53;;;;;;;;;;6249458;22;20019;-95
2023/09/07 04:19:29;;;;;;;9.50;5.70;;;;;;;;;;6224136;22;20011;-95
2023/09/07 04:21:55;;;;;;;6.20;5.70;;;;;;;;;;6249908;22;20043;-94
2023/09/07 04:24:21;;;;;;;6.88;5.60;;;;;;;;;;6250218;22;20015;-95
2023/09/07 04:26:49;;;;;;;7.80;5.75;;;;;;;;;;6227316;22;20012;-95
2023/09/07 04:29:15;;;;;;;6.18;5.20;;;;;;;;;;6251484;22;20018;-95
2023/09/07 04:31:41;;;;;;;6.85;5.57;;;;;;;;;;6223710;22;20023;-95
2023/09/07 04:34:07;;;;;;;6.68;5.65;;;;;;;;;;6254072;22;20447;-95
2023/09/07 04:36:34;;;;;;;7.43;5.60;;;;;;;;;;6224342;22;20055;-95
2023/09/07 04:39:00;;;;;;;6.30;5.60;;;;;;;;;;6223684;22;20061;-95
2023/09/07 04:41:26;;;;;;;6.50;5.38;;;;;;;;;;6223548;22;20090;-94
2023/09/07 04:43:52;;;;;;;6.38;5.78;;;;;;;;;;6223402;22;20012;-95
2023/09/07 04:46:21;;;;;;;6.40;5.55;;;;;;;;;;6248549;22;20007;-94
2023/09/07 04:48:47;;;;;;;5.75;5.25;;;;;;;;;;6249171;22;20091;-95
2023/09/07 04:51:13;;;;;;;6.38;5.22;;;;;;;;;;6224378;22;20086;-95
2023/09/07 04:53:40;;;;;;;7.03;5.32;;;;;;;;;;6223789;22;20016;-94
2023/09/07 04:56:06;;;;;;;6.53;5.53;;;;;;;;;;6252362;22;20027;-95
2023/09/07 04:58:33;;;;;;;7.43;5.82;;;;;;;;;;6230234;22;20015;-95
2023/09/07 05:01:05;;;;;;;6.28;5.65;;;;;;;;;;6256385;22;20015;-96
2023/09/07 05:03:31;;;;;;;8.35;6.30;;;;;;;;;;6250838;22;20011;-96
2023/09/07 05:05:57;;;;;;;6.38;5.65;;;;;;;;;;6249581;22;20074;-96
2023/09/07 05:08:24;;;;;;;6.22;5.63;;;;;;;;;;6223456;22;20012;-96
2023/09/07 05:10:56;;;;;;;6.13;5.50;;;;;;;;;;6248647;22;20030;-96
2023/09/07 05:13:22;;;;;;;8.00;5.80;;;;;;;;;;6224312;22;20157;-95
2023/09/07 05:15:49;;;;;;;6.88;6.25;;;;;;;;;;6223548;22;20008;-96
2023/09/07 05:18:15;;;;;;;6.45;5.85;;;;;;;;;;6223655;22;20065;-95
2023/09/07 05:20:41;;;;;;;6.78;6.18;;;;;;;;;;6224766;22;20012;-96
2023/09/07 05:23:07;;;;;;;7.00;5.88;;;;;;;;;;6227410;22;20022;-96
2023/09/07 05:25:33;;;;;;;6.72;6.10;;;;;;;;;;6228563;22;20063;-96
2023/09/07 05:27:59;;;;;;;6.80;6.20;;;;;;;;;;6259940;22;20016;-95
2023/09/07 05:30:25;;;;;;;7.38;6.03;;;;;;;;;;6260161;22;20019;-95
2023/09/07 05:32:51;;;;;;;7.72;6.20;;;;;;;;;;6232200;22;20345;-95
2023/09/07 05:35:17;;;;;;;7.28;6.20;;;;;;;;;;6236083;22;20011;-95
2023/09/07 05:37:44;;;;;;;6.57;5.97;;;;;;;;;;6234670;22;20011;-96
2023/09/07 05:40:11;;;;;;;6.32;5.72;;;;;;;;;;6224839;22;20043;-96
2023/09/07 05:42:37;;;;;;;8.07;5.97;;;17.00;99.90;;;;;;6250069;22;20047;-96
2023/09/07 05:45:03;;;;;;;6.90;6.30;;;17.20;99.90;;;;;;6225111;22;20023;-96
2023/09/07 05:47:29;;;;;;;7.47;5.60;;;17.10;99.90;;;;;;6226696;22;20063;-96
2023/09/07 05:49:54;;;;;;;7.13;6.40;;;17.20;99.90;;;;;;6254267;22;20034;-96
2023/09/07 05:52:20;;;;;;;11.55;6.78;;;16.80;99.90;;;;;;6229417;22;20019;-96
2023/09/07 05:54:46;;;;;;;7.40;6.13;;;17.80;99.90;;;;;;6256503;22;20022;-95
2023/09/07 05:57:12;;;;;;;6.28;5.68;;;17.30;99.90;;;;;;6256418;22;20112;-96
2023/09/07 05:59:40;;;;;;;6.65;5.60;;;17.80;99.90;;;;;;6227242;22;20007;-96
2023/09/07 06:02:06;;;;;;;7.47;6.18;;;17.50;99.90;;;;;;6249679;22;20047;-95
2023/09/07 06:04:32;;;;;;;6.35;5.55;;;18.90;99.90;;;;;;6247728;22;20011;-94
2023/09/07 06:06:57;;;;;;;6.45;5.78;;;20.70;99.90;;;;;;6248085;22;20090;-94
2023/09/07 06:09:23;;;;;;;6.50;5.82;;;20.70;99.90;;;;;;6224106;22;20022;-94
2023/09/07 06:11:49;;;;;;;6.13;5.53;;;21.70;99.90;;;;;;6253441;22;20564;-94
2023/09/07 06:14:14;;;;;;;6.72;5.80;;;22.10;99.90;;;;;;6249600;22;20441;-94
2023/09/07 06:16:40;;;;;;;7.00;5.40;;;22.80;99.90;;;;;;6226047;22;20387;-94
2023/09/07 06:19:07;;;;;;;5.95;5.35;;;23.30;99.90;;;;;;6252562;22;20026;-94
2023/09/07 06:21:33;;;;;;;7.95;5.50;;;23.60;99.90;;;;;;6231584;22;20091;-96
2023/09/07 06:23:59;;;;;;;6.45;5.60;;;;;;;;;;6230373;22;20326;-96
2023/09/07 06:26:25;;;;;;;7.43;6.07;;;24.40;99.90;;;;;;6225155;22;20016;-95
2023/09/07 06:28:50;;;;;;;9.05;5.70;;;24.60;99.90;;;;;;6224141;22;20071;-95
2023/09/07 06:31:16;;;;;;;5.88;5.28;;;25.00;99.90;;;;;;6224036;22;20065;-95
2023/09/07 06:33:42;;;;;;;6.22;5.57;;;25.10;99.90;;;;;;6224205;22;20062;-95
2023/09/07 06:36:07;;;;;;;5.88;5.28;;;25.50;99.90;;;;;;6224244;22;20042;-94
2023/09/07 06:38:33;;;;;;;5.80;5.28;;;25.50;99.90;;;;;;6223889;22;20022;-96
2023/09/07 06:40:59;;;;;;;5.25;4.75;;;25.60;99.90;;;;;;6223728;22;20012;-95
2023/09/07 06:43:24;;;;;;;7.35;5.70;;;25.90;99.90;;;;;;6224100;22;20016;-96
2023/09/07 06:45:50;;;;;;;7.07;5.78;;;25.80;99.90;;;;;;6224641;22;20018;-95
2023/09/07 06:48:16;;;;;;;6.32;5.07;;;25.60;99.90;;;;;;6249684;22;20070;-96
2023/09/07 06:50:42;;;;;;;5.65;5.05;;;;;;;;;;6224486;22;20514;-95
2023/09/07 06:53:08;;;;;;;6.40;5.20;;;25.70;99.90;;;;;;6226016;22;20020;-94
2023/09/07 06:55:34;;;;;;;5.82;5.32;;;26.10;99.90;;;;;;6251842;22;20083;-95
2023/09/07 06:58:01;;;;;;;5.22;4.72;;;25.90;99.90;;;;;;6231974;22;20016;-95
2023/09/07 07:00:27;;;;;;;7.40;5.00;;;26.20;99.90;;;;;;6232980;22;20019;-95
2023/09/07 07:02:53;;;;;;;5.43;4.90;;;26.60;99.90;;;;;;6229758;22;20019;-95
2023/09/07 07:05:18;;;;;;;6.22;4.85;;;26.70;99.90;;;;;;6227774;22;20004;-95
2023/09/07 07:07:44;;;;;;;7.15;4.93;;;27.30;99.90;;;;;;6251848;22;20433;-94
2023/09/07 07:10:10;;;;;;;5.47;4.90;;;27.30;99.90;;;;;;6220603;23;20024;-94
2023/09/07 07:12:38;;;;;;;5.95;5.05;;;27.50;99.90;;;;;;6239350;23;20071;-94
2023/09/07 07:15:05;;;;;;;8.00;5.10;;;27.10;99.90;;;;;;6248372;23;20073;-95
2023/09/07 07:17:31;;;;;;;5.03;4.60;;;26.20;99.90;;;;;;6260093;23;20020;-94
2023/09/07 07:19:56;;;;;;;5.30;4.80;;;25.40;99.90;;;;;;6219105;23;20019;-95
2023/09/07 07:22:25;;;;;;;5.25;4.75;;;24.50;99.90;;;;;;6220110;23;20016;-96
2023/09/07 07:24:51;;;;;;;8.10;5.32;;;23.80;99.90;;;;;;6219676;23;20012;-94
2023/09/07 07:27:16;;;;;;;6.13;5.53;;;23.70;99.90;;;;;;6194917;23;20023;-95
2023/09/07 07:29:42;;;;;;;6.10;5.55;;;23.30;99.90;;;;;;6244767;23;20442;-94
2023/09/07 07:32:08;;;;;;;5.78;4.75;;;23.10;99.90;;;;;;6219261;23;20019;-95
2023/09/07 07:34:34;;;;;;;6.03;4.80;;;23.00;99.90;;;;;;6219953;23;20020;-94
2023/09/07 07:36:59;;;;;;;7.82;5.15;;;22.60;99.90;;;;;;6225666;23;20081;-95
2023/09/07 07:39:25;;;;;;;5.63;5.00;;;22.60;99.90;;;;;;6198182;23;20016;-94
2023/09/07 07:41:51;;;;;;;6.30;5.60;;;22.50;99.90;;;;;;6195125;23;20391;-95
2023/09/07 07:44:16;;;;;;;6.07;4.93;;;22.50;99.90;;;;;;6248933;23;20020;-95
2023/09/07 07:46:42;;;;;;;6.72;5.60;;;22.70;99.90;;;;;;6227674;23;20019;-94
2023/09/07 07:49:09;;;;;;;9.10;5.18;;;22.60;99.90;;;;;;6226219;23;20325;-95
2023/09/07 07:51:34;;;;;;;6.93;5.05;;;22.80;99.90;;;;;;6220990;23;20016;-94
2023/09/07 07:54:00;;;;;;;6.57;5.68;;;22.80;99.90;;;;;;6247138;23;20023;-95
2023/09/07 07:56:26;;;;;;;9.15;5.38;;;22.90;99.90;;;;;;6245487;23;20016;-95
2023/09/07 07:58:51;;;;;;;5.43;4.85;;;23.00;99.90;;;;;;6221757;23;20438;-94
2023/09/07 08:01:20;;;;;;;7.53;5.63;;;23.10;99.90;;;;;;6247117;23;20016;-93
2023/09/07 08:03:46;;;;;;;5.22;4.72;;;23.10;99.90;;;;;;6222376;23;20066;-94
2023/09/07 08:06:12;;;;;;;6.07;4.95;;;23.10;99.90;;;;;;6228985;23;20012;-94
2023/09/07 08:08:39;;;;;;;5.47;4.70;;;23.00;99.90;;;;;;6223283;23;20008;-94
2023/09/07 08:11:05;;;;;;;6.93;4.90;;;23.30;99.90;;;;;;6232107;23;20019;-94
2023/09/07 08:13:35;;;;;;;4.93;4.40;;;23.40;99.90;;;;;;6221161;23;20059;-94
2023/09/07 08:16:05;;;;;;;4.90;4.40;;;23.60;99.90;;;;;;6244258;23;20027;-94
2023/09/07 08:18:33;;;;;;;5.68;4.60;;;23.70;99.90;;;;;;6244626;23;20019;-94
2023/09/07 08:20:59;;;;;;;6.82;4.88;;;23.70;99.90;;;;;;6220843;23;20016;-94
2023/09/07 08:23:25;;;;;;;4.95;4.50;;;23.90;99.90;;;;;;6229468;23;20038;-94
2023/09/07 08:25:52;;;;;;;6.30;4.85;;;24.00;99.90;;;;;;6222764;23;20020;-94
2023/09/07 08:28:18;;;;;;;5.35;4.85;;;24.00;99.90;;;;;;6219136;23;20016;-93
2023/09/07 08:30:44;;;;;;;6.07;5.00;;;24.20;99.90;;;;;;6243545;23;20081;-94
2023/09/07 08:33:11;;;;;;;6.25;4.88;;;24.30;99.90;;;;;;6218577;23;20103;-93
2023/09/07 08:35:43;;;;;;;7.57;4.70;;;24.30;99.90;;;;;;6218601;23;20341;-94
2023/09/07 08:38:10;;;;;;;5.72;4.43;;;24.50;99.90;;;;;;6218440;23;20015;-93
2023/09/07 08:40:38;;;;;;;5.00;4.50;;;24.50;99.90;;;;;;6244011;23;20012;-93
2023/09/07 08:43:06;;;;;;;5.13;4.40;;;24.70;99.90;;;;;;6192878;23;20471;-94
2023/09/07 08:45:37;;;;;;;6.78;4.90;;;24.80;99.90;;;;;;6218058;23;20026;-93
2023/09/07 08:48:04;;;;;;;6.97;4.63;;;24.50;99.90;;;;;;6193048;23;20429;-93
2023/09/07 08:50:31;;;;;;;6.63;5.17;;;24.70;99.90;;;;;;6192502;23;20012;-93
2023/09/07 08:52:59;;;;;;;4.97;4.57;;;24.80;99.90;;;;;;6217237;23;20043;-94
2023/09/07 08:55:26;;;;;;;5.22;4.75;;;24.80;99.90;;;;;;6218196;23;20111;-94
2023/09/07 08:57:51;;;;;;;6.38;4.88;;;25.00;99.90;;;;;;6218830;23;20051;-93
2023/09/07 09:00:19;;;;;;;5.03;4.55;;;24.90;99.90;;;;;;6227397;23;20012;-94
2023/09/07 09:02:49;;;;;;;7.50;4.53;;;24.90;99.90;;;;;;6217815;23;20016;-94
2023/09/07 09:05:15;;;;;;;4.68;4.20;;;25.10;99.90;;;;;;6226090;23;20020;-94
2023/09/07 09:07:41;;;;;;;6.88;4.63;;;25.30;99.90;;;;;;6217331;23;20008;-92
2023/09/07 09:10:08;;;;;;;5.78;4.50;;;25.40;99.90;;;;;;6202368;22;20524;-93
2023/09/07 09:12:34;;;;;;;4.85;4.40;;;25.60;99.90;;;;;;6222434;22;20428;-94
2023/09/07 09:15:03;;;;;;;8.13;4.40;;;25.40;99.90;;;;;;6222556;22;20022;-93
2023/09/07 09:17:29;;;;;;;6.65;3.90;;;25.40;99.90;;;;;;6222621;22;20051;-93
2023/09/07 09:19:55;;;;;;;4.45;4.07;;;25.70;99.90;;;;;;6222741;22;20031;-95
2023/09/07 09:22:24;;;;;;;4.68;4.18;;;25.70;99.90;;;;;;6248337;22;20466;-94
2023/09/07 09:24:50;;;;;;;6.88;4.45;;;25.80;99.90;;;;;;6222829;22;20016;-94
2023/09/07 09:27:17;;;;;;;5.50;3.80;;;26.10;99.90;;;;;;6222926;22;20457;-94
2023/09/07 09:29:44;;;;;;;4.60;4.13;;;26.10;99.90;;;;;;6247856;22;20047;-93
2023/09/07 09:32:13;;;;;;;7.68;4.10;;;26.00;99.90;;;;;;6223544;22;20008;-93
2023/09/07 09:34:39;;;;;;;4.22;3.80;;;26.10;99.90;;;;;;6223084;22;20008;-93
2023/09/07 09:37:13;;;;;;;6.93;4.40;;;26.10;99.90;;;;;;6222601;22;20089;-94
2023/09/07 09:39:39;;;;;;;4.43;4.00;;;26.30;99.90;;;;;;6248308;22;20043;-93
2023/09/07 09:42:05;;;;;;;6.03;4.40;;;26.50;99.90;;;;;;6248060;22;20012;-95
2023/09/07 09:44:32;;;;;;;6.32;4.18;;;26.50;99.90;;;;;;6222909;22;20023;-94
2023/09/07 09:46:58;;;;;;;;;;;26.50;99.90;;;;;;6223497;22;20004;-95
2023/09/07 09:49:26;;;;;;;5.90;4.13;;;26.40;99.90;;;;;;6248072;22;19911;-95
2023/09/07 09:51:51;;;;;;;;;;;26.60;99.90;;;;;;6223287;22;20018;-95
2023/09/07 09:54:23;;;;;;;7.38;3.80;;;26.70;99.90;;;;;;6259428;22;19911;-94
2023/09/07 09:56:49;;;;;;;6.97;4.25;;;26.80;99.90;;;;;;6225603;22;20015;-94
2023/09/07 09:59:15;;;;;;;7.35;4.07;;;26.70;99.90;;;;;;6234627;22;20034;-95
2023/09/07 10:01:44;;;;;;;4.25;3.95;;;26.70;99.90;;;;;;6223290;22;20073;-95
2023/09/07 10:04:12;;;;;;;4.75;3.95;;;26.70;99.90;;;;;;6221736;22;20043;-95
2023/09/07 10:06:38;;;;;;;5.65;4.30;;;27.00;99.90;;;;;;6223915;22;20012;-95
2023/09/07 10:09:10;;;;;;;6.25;3.63;;;27.00;99.90;;;;;;6251173;22;20022;-94
2023/09/07 10:11:38;;;;;;;4.90;4.03;;;27.10;99.90;;;;;;6248479;22;20063;-93
2023/09/07 10:14:08;;;;;;;5.40;3.90;;;27.10;99.90;;;;;;6229525;22;20016;-94
2023/09/07 10:16:51;;;;;;;5.45;3.75;;;27.10;99.90;;;;;;6254431;22;20022;-94
2023/09/07 10:19:22;;;;;;;4.47;3.38;;;27.20;99.90;;;;;;6228232;22;20020;-94
2023/09/07 10:21:49;;;;;;;6.22;3.85;;;27.40;99.90;;;;;;6255364;22;20082;-93
2023/09/07 10:24:25;;;;;;;4.05;3.53;;;27.60;99.90;;;;;;6224510;22;20452;-93
2023/09/07 10:27:02;;;;;;;;;;;27.60;99.90;;;;;;6223778;22;20012;-93
2023/09/07 10:29:28;;;;;;;6.20;4.00;;;27.60;99.90;;;;;;6248976;22;19917;-94
2023/09/07 10:31:54;;;;;;;4.55;3.45;;;27.50;99.90;;;;;;6248288;22;20011;-94
2023/09/07 10:34:22;;;;;;;4.63;3.60;;;27.60;99.90;;;;;;6221757;22;20015;-94
2023/09/07 10:36:51;;;;;;;4.78;3.55;;;27.60;99.90;;;;;;6223429;22;20011;-94
2023/09/07 10:39:16;;;;;;;4.97;3.70;;;27.80;99.90;;;;;;6228033;22;20024;-94
2023/09/07 10:41:44;;;;;;;4.53;3.58;;;27.70;99.90;;;;;;6226814;22;20022;-94
2023/09/07 10:44:13;;;;;;;3.72;3.33;;;27.90;99.90;;;;;;6249922;22;20015;-95
2023/09/07 10:46:40;;;;;;;4.53;3.60;;;28.00;99.90;;;;;;6224444;22;20014;-94
2023/09/07 10:49:11;;;;;;;6.20;3.58;;;28.10;99.90;;;;;;6233627;22;20008;-94
2023/09/07 10:51:45;;;;;;;4.75;4.00;;;28.20;99.90;;;;;;6258023;22;20020;-94
2023/09/07 10:54:37;;;;;;;4.30;3.60;;;28.20;99.90;;;;;;6234367;22;20019;-95
2023/09/07 10:57:10;;;;;;;4.70;3.60;;;28.20;99.90;;;;;;6244029;22;20016;-95
2023/09/07 10:59:36;;;;;;;3.85;3.55;;;28.20;99.90;;;;;;6225387;22;20012;-94
2023/09/07 11:02:05;;;;;;;6.15;3.63;;;28.30;99.90;;;;;;6226190;22;20023;-92
2023/09/07 11:04:31;;;;;;;5.25;3.10;;;28.20;99.90;;;;;;6226933;22;20018;-95
2023/09/07 11:06:57;;;;;;;5.07;3.20;;;28.20;99.90;;;;;;6228001;22;20019;-94
2023/09/07 11:09:23;;;;;;;5.45;3.40;;;28.20;99.90;;;;;;6228238;22;20109;-94
2023/09/07 11:11:49;;;;;;;8.48;3.63;;;28.50;99.90;;;;;;6225743;22;20471;-94
2023/09/07 11:14:14;;;;;;;4.05;3.42;;;28.50;99.90;;;;;;6227062;22;20011;-94
2023/09/07 11:16:41;;;;;;;5.10;3.80;;;28.60;99.90;;;;;;6251044;22;20018;-93
2023/09/07 11:19:08;;;;;;;3.95;3.55;;;28.70;99.90;;;;;;6254487;22;20091;-95
2023/09/07 11:21:36;;;;;;;6.78;3.40;;;28.70;99.90;;;;;;6231633;22;20016;-95
2023/09/07 11:24:05;;;;;;;5.70;3.50;;;28.70;99.90;;;;;;6240424;22;20011;-95
2023/09/07 11:26:45;;;;;;;4.30;3.25;;;28.80;99.90;;;;;;6264174;22;20074;-95
2023/09/07 11:29:17;;;;;;;3.95;3.65;;;28.90;99.90;;;;;;6227645;22;20004;-93
2023/09/07 11:31:47;;;;;;;5.30;3.20;;;28.80;99.80;;;;;;6226587;22;20051;-93
2023/09/07 11:34:13;;;;;;;5.70;3.50;;;28.80;99.40;;;;;;6224879;22;20015;-93
2023/09/07 11:36:40;;;;;;;4.82;3.50;;;28.70;99.00;;;;;;6227834;22;20026;-93
2023/09/07 11:39:11;;;;;;;4.78;3.75;;;28.70;98.80;;;;;;6253531;22;20012;-93
2023/09/07 11:41:39;;;;;;;4.85;3.40;;;28.80;99.00;;;;;;6257160;22;20047;-92
2023/09/07 11:44:05;;;;;;;6.10;3.70;;;28.90;99.00;;;;;;6227044;22;20012;-94
2023/09/07 11:46:31;;;;;;;3.53;3.15;;;28.90;99.00;;;;;;6263818;22;20015;-93
2023/09/07 11:48:56;;;;;;;3.95;3.25;;;29.10;99.10;;;;;;6229281;22;20459;-93
2023/09/07 11:51:22;;;;;;;5.88;3.55;;;29.10;98.60;;;;;;6223224;22;20046;-94
2023/09/07 11:53:49;;;;;;;5.65;3.42;;;29.00;98.70;;;;;;6249116;22;20074;-94
2023/09/07 11:56:14;;;;;;;6.47;3.20;;;29.20;99.20;;;;;;6223928;22;20433;-95
2023/09/07 11:58:43;;;;;;;3.72;3.42;;;;;;;;;;6223521;22;20008;-94
2023/09/07 12:01:09;;;;;;;5.22;3.50;;;29.40;99.30;;;;;;6249535;22;20011;-93
2023/09/07 12:03:35;;;;;;;3.70;3.40;;;29.40;99.10;;;;;;6223550;22;20095;-94
2023/09/07 12:06:01;;;;;;;4.53;3.00;;;29.40;99.40;;;;;;6222979;22;20012;-94
2023/09/07 12:08:27;;;;;;;4.40;3.40;;;29.50;99.70;;;;;;6223589;22;20007;-94
2023/09/07 12:10:52;;;;;;;3.80;3.40;;;29.60;99.80;;;;;;6248391;22;20016;-93
2023/09/07 12:13:18;;;;;;;4.85;3.45;;;29.70;99.70;;;;;;6223783;22;20444;-93
2023/09/07 12:15:44;;;;;;;5.25;3.47;;;29.80;99.80;;;;;;6222855;22;20011;-94
2023/09/07 12:18:09;;;;;;;3.50;3.20;;;29.80;99.90;;;;;;6248323;22;20416;-94
2023/09/07 12:20:35;;;;;;;3.78;3.25;;;29.70;98.60;;;;;;6223586;22;20004;-95
2023/09/07 12:23:02;;;;;;;9.02;3.60;;;29.70;99.10;;;;;;6223401;22;20065;-94
2023/09/07 12:25:28;;;;;;;4.72;3.35;;;29.60;99.00;;;;;;6248960;22;20083;-94
2023/09/07 12:27:53;;;;;;;3.60;3.30;;;29.50;99.00;;;;;;6223418;22;20018;-95
2023/09/07 12:30:20;;;;;;;3.90;3.50;;;29.60;98.90;;;;;;6222754;22;20008;-94
2023/09/07 12:32:46;;;;;;;4.10;3.70;;;29.60;98.90;;;;;;6223208;22;20011;-93
2023/09/07 12:35:12;;;;;;;3.30;3.00;;;29.70;99.40;;;;;;6226538;22;20019;-93
2023/09/07 12:37:38;;;;;;;5.13;3.40;;;29.70;99.30;;;;;;6235135;22;20015;-94
2023/09/07 12:40:13;;;;;;;5.25;3.17;;;29.90;99.20;;;;;;6225017;22;20340;-93
2023/09/07 12:42:44;;;;;;;3.53;3.22;;;30.00;99.70;;;;;;6234131;22;20368;-94
2023/09/07 12:45:14;;;;;;;6.32;3.03;;;29.90;98.40;;;;;;6222335;22;20055;-94
2023/09/07 12:47:40;;;;;;;4.05;3.25;;;29.90;98.30;;;;;;6248184;22;20059;-93
2023/09/07 12:50:06;;;;;;;3.87;3.07;;;29.90;99.00;;;;;;6222959;22;20043;-94
2023/09/07 12:52:34;;;;;;;4.22;3.03;;;30.00;98.70;;;;;;6248824;22;20077;-94
2023/09/07 12:55:00;;;;;;;3.55;3.25;;;30.10;99.00;;;;;;6223108;22;20038;-94
2023/09/07 12:57:25;;;;;;;4.05;3.42;;;30.30;98.40;;;;;;6225869;22;20020;-95
2023/09/07 13:00:03;;;;;;;4.55;3.22;;;30.10;98.00;;;;;;6227346;22;20081;-96